createdAt,value
2022-10-07T00:00:32.233Z,976.24
2022-10-07T00:01:32.303Z,976.24
2022-10-07T00:02:32.304Z,976.23
2022-10-07T00:03:32.198Z,976.22
2022-10-07T00:04:32.203Z,976.26
2022-10-07T00:05:32.165Z,976.19
2022-10-07T00:06:32.179Z,976.19
2022-10-07T00:07:32.175Z,976.18
2022-10-07T00:08:32.150Z,976.15
2022-10-07T00:09:32.125Z,976.18
2022-10-07T00:10:32.103Z,976.17
2022-10-07T00:11:32.093Z,976.21
2022-10-07T00:12:32.095Z,976.22
2022-10-07T00:13:32.110Z,976.19
2022-10-07T00:14:32.068Z,976.17
2022-10-07T00:15:32.089Z,976.19
2022-10-07T00:16:32.102Z,976.15
2022-10-07T00:17:32.034Z,976.12
2022-10-07T00:18:32.051Z,976.13
2022-10-07T00:19:32.005Z,976.15
2022-10-07T00:20:32.008Z,976.19
2022-10-07T00:21:32.008Z,976.18
2022-10-07T00:22:31.993Z,976.16
2022-10-07T00:23:31.984Z,976.16
2022-10-07T00:24:31.987Z,976.25
2022-10-07T00:25:31.938Z,976.16
2022-10-07T00:26:31.932Z,976.12
2022-10-07T00:27:31.941Z,976.13
2022-10-07T00:28:32.076Z,976.11
2022-10-07T00:29:31.922Z,976.13
2022-10-07T00:30:31.961Z,976.13
2022-10-07T00:31:31.880Z,976.11
2022-10-07T00:32:31.886Z,976.10
2022-10-07T00:33:31.859Z,976.10
2022-10-07T00:34:31.848Z,976.05
2022-10-07T00:35:31.801Z,976.04
2022-10-07T00:36:31.822Z,976.01
2022-10-07T00:37:31.776Z,976.01
2022-10-07T00:38:31.782Z,975.93
2022-10-07T00:39:31.772Z,975.96
2022-10-07T00:40:31.770Z,975.89
2022-10-07T00:41:31.732Z,975.88
2022-10-07T00:42:31.737Z,975.83
2022-10-07T00:43:31.701Z,975.84
2022-10-07T00:44:40.510Z,975.83
2022-10-07T00:45:31.736Z,975.85
2022-10-07T00:46:31.706Z,975.84
2022-10-07T00:47:31.666Z,975.81
2022-10-07T00:48:31.672Z,975.78
2022-10-07T00:49:31.631Z,975.78
2022-10-07T00:50:31.642Z,975.77
2022-10-07T00:51:31.643Z,975.76
2022-10-07T00:52:31.626Z,975.77
2022-10-07T00:53:31.597Z,975.73
2022-10-07T00:54:31.606Z,975.76
2022-10-07T00:55:31.572Z,975.71
2022-10-07T00:56:31.584Z,975.73
2022-10-07T00:57:31.665Z,975.69
2022-10-07T00:58:31.543Z,975.71
2022-10-07T00:59:31.550Z,975.69
2022-10-07T01:00:31.699Z,975.71
2022-10-07T01:01:31.621Z,975.67
2022-10-07T01:02:31.623Z,975.68
2022-10-07T01:03:31.474Z,975.70
2022-10-07T01:04:31.482Z,975.71
2022-10-07T01:05:31.453Z,975.64
2022-10-07T01:06:31.497Z,975.67
2022-10-07T01:07:31.449Z,975.60
2022-10-07T01:08:31.458Z,975.63
2022-10-07T01:09:31.413Z,975.61
2022-10-07T01:10:31.431Z,975.58
2022-10-07T01:11:31.427Z,975.60
2022-10-07T01:12:31.391Z,975.63
2022-10-07T01:13:31.367Z,975.61
2022-10-07T01:14:31.351Z,975.59
2022-10-07T01:15:31.352Z,975.60
2022-10-07T01:16:31.468Z,975.57
2022-10-07T01:17:31.318Z,975.50
2022-10-07T01:18:31.334Z,975.54
2022-10-07T01:19:31.302Z,975.49
2022-10-07T01:20:31.284Z,975.48
2022-10-07T01:21:31.295Z,975.47
2022-10-07T01:22:31.276Z,975.51
2022-10-07T01:23:32.022Z,975.42
2022-10-07T01:24:31.271Z,975.44
2022-10-07T01:25:31.267Z,975.45
2022-10-07T01:26:31.242Z,975.43
2022-10-07T01:27:31.235Z,975.48
2022-10-07T01:28:31.272Z,975.39
2022-10-07T01:29:31.195Z,975.42
2022-10-07T01:30:31.244Z,975.38
2022-10-07T01:31:31.167Z,975.37
2022-10-07T01:32:31.165Z,975.34
2022-10-07T01:33:31.170Z,975.40
2022-10-07T01:34:31.180Z,975.34
2022-10-07T01:35:31.121Z,975.33
2022-10-07T01:36:31.131Z,975.33
2022-10-07T01:37:31.109Z,975.28
2022-10-07T01:38:31.105Z,975.27
2022-10-07T01:39:31.073Z,975.31
2022-10-07T01:40:31.068Z,975.30
2022-10-07T01:41:31.080Z,975.31
2022-10-07T01:42:31.072Z,975.24
2022-10-07T01:43:31.072Z,975.25
2022-10-07T01:44:31.044Z,975.24
2022-10-07T01:45:31.007Z,975.25
2022-10-07T01:46:31.070Z,975.26
2022-10-07T01:47:30.983Z,975.22
2022-10-07T01:48:31.019Z,975.24
2022-10-07T01:49:30.975Z,975.22
2022-10-07T01:50:30.969Z,975.22
2022-10-07T01:51:30.940Z,975.11
2022-10-07T01:52:30.960Z,975.16
2022-10-07T01:53:30.921Z,975.17
2022-10-07T01:54:30.907Z,975.10
2022-10-07T01:55:30.903Z,975.16
2022-10-07T01:56:30.884Z,975.17
2022-10-07T01:57:30.876Z,975.16
2022-10-07T01:58:30.905Z,975.13
2022-10-07T01:59:30.877Z,975.12
2022-10-07T02:00:30.846Z,975.18
2022-10-07T02:01:30.884Z,975.13
2022-10-07T02:02:30.816Z,975.11
2022-10-07T02:03:30.871Z,975.13
2022-10-07T02:04:30.820Z,975.08
2022-10-07T02:05:30.785Z,975.07
2022-10-07T02:06:30.785Z,975.09
2022-10-07T02:07:30.777Z,975.12
2022-10-07T02:08:30.799Z,975.15
2022-10-07T02:09:30.745Z,975.09
2022-10-07T02:10:30.758Z,975.08
2022-10-07T02:11:30.717Z,975.12
2022-10-07T02:12:30.726Z,975.08
2022-10-07T02:13:30.690Z,975.10
2022-10-07T02:14:30.804Z,975.15
2022-10-07T02:15:30.758Z,975.08
2022-10-07T02:16:30.705Z,975.03
2022-10-07T02:17:30.656Z,975.04
2022-10-07T02:18:30.659Z,975.03
2022-10-07T02:19:30.672Z,975.00
2022-10-07T02:20:30.629Z,974.98
2022-10-07T02:21:30.608Z,974.99
2022-10-07T02:22:30.597Z,974.97
2022-10-07T02:23:30.637Z,974.96
2022-10-07T02:24:30.569Z,974.95
2022-10-07T02:25:30.568Z,974.99
2022-10-07T02:26:30.558Z,974.92
2022-10-07T02:27:30.543Z,974.92
2022-10-07T02:28:30.576Z,974.94
2022-10-07T02:29:30.537Z,974.88
2022-10-07T02:30:30.520Z,974.87
2022-10-07T02:31:30.640Z,974.87
2022-10-07T02:32:30.501Z,974.85
2022-10-07T02:33:30.487Z,974.85
2022-10-07T02:34:30.491Z,974.86
2022-10-07T02:35:30.462Z,974.87
2022-10-07T02:36:30.435Z,974.85
2022-10-07T02:37:30.442Z,974.82
2022-10-07T02:38:30.418Z,974.89
2022-10-07T02:39:30.400Z,974.81
2022-10-07T02:40:30.465Z,974.87
2022-10-07T02:41:30.376Z,974.89
2022-10-07T02:42:30.421Z,974.82
2022-10-07T02:43:30.368Z,974.84
2022-10-07T02:44:30.357Z,974.79
2022-10-07T02:45:30.338Z,974.75
2022-10-07T02:46:30.487Z,974.74
2022-10-07T02:47:30.353Z,974.69
2022-10-07T02:48:30.321Z,974.69
2022-10-07T02:49:30.322Z,974.74
2022-10-07T02:50:30.313Z,974.71
2022-10-07T02:51:30.279Z,974.73
2022-10-07T02:52:30.291Z,974.72
2022-10-07T02:53:30.245Z,974.74
2022-10-07T02:54:30.238Z,974.70
2022-10-07T02:55:30.258Z,974.75
2022-10-07T02:56:30.262Z,974.76
2022-10-07T02:57:30.205Z,974.68
2022-10-07T02:58:30.223Z,974.73
2022-10-07T02:59:30.183Z,974.71
2022-10-07T03:00:30.183Z,974.69
2022-10-07T03:01:30.213Z,974.70
2022-10-07T03:02:30.197Z,974.65
2022-10-07T03:03:30.186Z,974.63
2022-10-07T03:04:30.131Z,974.69
2022-10-07T03:05:30.135Z,974.71
2022-10-07T03:06:30.100Z,974.68
2022-10-07T03:07:30.083Z,974.63
2022-10-07T03:08:30.110Z,974.61
2022-10-07T03:09:30.062Z,974.64
2022-10-07T03:10:30.103Z,974.68
2022-10-07T03:11:30.058Z,974.65
2022-10-07T03:12:30.069Z,974.72
2022-10-07T03:13:30.024Z,974.65
2022-10-07T03:14:30.023Z,974.66
2022-10-07T03:15:29.994Z,974.71
2022-10-07T03:16:30.074Z,974.67
2022-10-07T03:17:30.019Z,974.65
2022-10-07T03:18:30.000Z,974.66
2022-10-07T03:19:29.961Z,974.65
2022-10-07T03:20:29.969Z,974.63
2022-10-07T03:21:29.927Z,974.58
2022-10-07T03:22:29.943Z,974.62
2022-10-07T03:23:29.913Z,974.63
2022-10-07T03:24:29.912Z,974.56
2022-10-07T03:25:29.924Z,974.64
2022-10-07T03:26:29.876Z,974.65
2022-10-07T03:27:29.866Z,974.67
2022-10-07T03:28:29.952Z,974.69
2022-10-07T03:29:29.867Z,974.61
2022-10-07T03:30:29.889Z,974.65
2022-10-07T03:31:29.926Z,974.63
2022-10-07T03:32:29.808Z,974.60
2022-10-07T03:33:29.805Z,974.61
2022-10-07T03:34:29.835Z,974.58
2022-10-07T03:35:29.806Z,974.60
2022-10-07T03:36:29.780Z,974.57
2022-10-07T03:37:29.769Z,974.52
2022-10-07T03:38:29.806Z,974.55
2022-10-07T03:39:29.732Z,974.51
2022-10-07T03:40:29.764Z,974.60
2022-10-07T03:41:29.703Z,974.51
2022-10-07T03:42:29.709Z,974.53
2022-10-07T03:43:29.683Z,974.54
2022-10-07T03:44:29.734Z,974.50
2022-10-07T03:45:29.683Z,974.49
2022-10-07T03:46:29.758Z,974.48
2022-10-07T03:47:29.643Z,974.50
2022-10-07T03:48:29.638Z,974.47
2022-10-07T03:49:29.655Z,974.47
2022-10-07T03:50:29.639Z,974.46
2022-10-07T03:51:29.633Z,974.51
2022-10-07T03:52:29.599Z,974.48
2022-10-07T03:53:29.627Z,974.49
2022-10-07T03:54:29.574Z,974.46
2022-10-07T03:55:29.548Z,974.45
2022-10-07T03:56:29.557Z,974.46
2022-10-07T03:57:29.555Z,974.49
2022-10-07T03:58:29.514Z,974.44
2022-10-07T03:59:29.507Z,974.47
2022-10-07T04:00:29.527Z,974.48
2022-10-07T04:01:29.541Z,974.41
2022-10-07T04:02:29.513Z,974.37
2022-10-07T04:03:29.504Z,974.40
2022-10-07T04:04:29.452Z,974.33
2022-10-07T04:05:29.467Z,974.37
2022-10-07T04:06:29.481Z,974.41
2022-10-07T04:07:29.425Z,974.42
2022-10-07T04:08:29.447Z,974.36
2022-10-07T04:09:29.392Z,974.36
2022-10-07T04:10:29.400Z,974.38
2022-10-07T04:11:29.385Z,974.35
2022-10-07T04:12:29.357Z,974.36
2022-10-07T04:13:29.351Z,974.34
2022-10-07T04:14:29.374Z,974.29
2022-10-07T04:15:29.368Z,974.30
2022-10-07T04:16:29.479Z,974.30
2022-10-07T04:17:29.344Z,974.30
2022-10-07T04:18:29.296Z,974.26
2022-10-07T04:19:29.313Z,974.23
2022-10-07T04:20:29.278Z,974.24
2022-10-07T04:21:29.262Z,974.27
2022-10-07T04:22:29.263Z,974.21
2022-10-07T04:23:29.237Z,974.22
2022-10-07T04:24:29.236Z,974.16
2022-10-07T04:25:29.242Z,974.20
2022-10-07T04:26:29.208Z,974.18
2022-10-07T04:27:50.811Z,974.16
2022-10-07T04:28:30.216Z,974.18
2022-10-07T04:29:29.170Z,974.14
2022-10-07T04:30:29.182Z,974.20
2022-10-07T04:31:29.255Z,974.15
2022-10-07T04:32:29.134Z,974.13
2022-10-07T04:33:29.128Z,974.15
2022-10-07T04:34:29.154Z,974.17
2022-10-07T04:35:29.118Z,974.13
2022-10-07T04:36:29.116Z,974.09
2022-10-07T04:37:29.091Z,974.11
2022-10-07T04:38:29.091Z,974.14
2022-10-07T04:39:48.891Z,974.11
2022-10-07T04:40:30.064Z,974.10
2022-10-07T04:41:29.054Z,974.14
2022-10-07T04:42:29.041Z,974.10
2022-10-07T04:43:29.007Z,974.09
2022-10-07T04:44:29.011Z,974.09
2022-10-07T04:45:29.028Z,974.12
2022-10-07T04:46:29.086Z,974.11
2022-10-07T04:47:28.963Z,974.15
2022-10-07T04:48:28.960Z,974.06
2022-10-07T04:49:28.948Z,974.05
2022-10-07T04:50:28.937Z,974.08
2022-10-07T04:51:28.972Z,974.08
2022-10-07T04:52:28.917Z,974.04
2022-10-07T04:53:28.913Z,974.05
2022-10-07T04:54:28.929Z,974.02
2022-10-07T04:55:28.885Z,974.05
2022-10-07T04:56:28.897Z,974.04
2022-10-07T04:57:28.851Z,974.00
2022-10-07T04:58:28.866Z,974.03
2022-10-07T04:59:30.080Z,973.95
2022-10-07T05:00:28.980Z,973.94
2022-10-07T05:01:28.959Z,974.02
2022-10-07T05:02:28.847Z,973.97
2022-10-07T05:03:28.788Z,974.01
2022-10-07T05:04:28.795Z,973.97
2022-10-07T05:05:28.774Z,973.98
2022-10-07T05:06:28.757Z,973.98
2022-10-07T05:07:28.765Z,973.95
2022-10-07T05:08:28.722Z,973.94
2022-10-07T05:09:28.748Z,973.95
2022-10-07T05:10:28.775Z,973.93
2022-10-07T05:11:28.702Z,973.96
2022-10-07T05:12:28.737Z,973.98
2022-10-07T05:13:28.690Z,973.95
2022-10-07T05:14:28.662Z,973.99
2022-10-07T05:15:28.657Z,973.99
2022-10-07T05:16:28.710Z,973.97
2022-10-07T05:17:28.639Z,973.97
2022-10-07T05:18:28.635Z,973.95
2022-10-07T05:19:28.602Z,973.92
2022-10-07T05:20:28.600Z,973.97
2022-10-07T05:21:28.610Z,973.91
2022-10-07T05:22:28.602Z,973.94
2022-10-07T05:23:29.054Z,973.97
2022-10-07T05:24:28.564Z,973.93
2022-10-07T05:25:28.533Z,973.95
2022-10-07T05:26:28.555Z,973.96
2022-10-07T05:27:28.551Z,973.97
2022-10-07T05:28:28.543Z,973.95
2022-10-07T05:29:28.558Z,973.95
2022-10-07T05:30:28.477Z,973.95
2022-10-07T05:31:28.566Z,973.93
2022-10-07T05:32:28.484Z,973.93
2022-10-07T05:33:28.472Z,973.92
2022-10-07T05:34:28.452Z,973.94
2022-10-07T05:35:28.450Z,973.90
2022-10-07T05:36:28.451Z,973.94
2022-10-07T05:37:28.409Z,973.92
2022-10-07T05:38:28.406Z,973.93
2022-10-07T05:39:28.410Z,973.88
2022-10-07T05:40:28.381Z,973.85
2022-10-07T05:41:28.402Z,973.89
2022-10-07T05:42:28.405Z,973.97
2022-10-07T05:43:28.349Z,973.94
2022-10-07T05:44:28.323Z,973.86
2022-10-07T05:45:28.395Z,973.90
2022-10-07T05:46:28.332Z,973.95
2022-10-07T05:47:28.316Z,973.92
2022-10-07T05:48:28.281Z,973.88
2022-10-07T05:49:28.277Z,973.89
2022-10-07T05:50:28.295Z,973.92
2022-10-07T05:51:28.248Z,973.93
2022-10-07T05:52:28.304Z,974.00
2022-10-07T05:53:28.312Z,973.99
2022-10-07T05:54:28.220Z,973.90
2022-10-07T05:55:28.222Z,974.02
2022-10-07T05:56:28.224Z,973.94
2022-10-07T05:57:28.187Z,973.94
2022-10-07T05:58:28.209Z,973.93
2022-10-07T05:59:28.160Z,973.96
2022-10-07T06:00:28.153Z,973.93
2022-10-07T06:01:28.140Z,973.97
2022-10-07T06:02:28.179Z,974.01
2022-10-07T06:03:28.204Z,973.93
2022-10-07T06:04:28.134Z,973.99
2022-10-07T06:05:28.098Z,973.95
2022-10-07T06:06:28.100Z,973.93
2022-10-07T06:07:29.488Z,973.92
2022-10-07T06:08:28.058Z,973.95
2022-10-07T06:09:28.055Z,973.95
2022-10-07T06:10:28.129Z,973.90
2022-10-07T06:11:28.040Z,973.93
2022-10-07T06:12:28.041Z,973.93
2022-10-07T06:13:28.047Z,973.92
2022-10-07T06:14:28.015Z,973.94
2022-10-07T06:15:27.999Z,973.90
2022-10-07T06:16:28.078Z,973.96
2022-10-07T06:17:27.970Z,973.93
2022-10-07T06:18:27.984Z,973.91
2022-10-07T06:19:27.938Z,973.92
2022-10-07T06:20:27.975Z,973.92
2022-10-07T06:21:28.431Z,973.91
2022-10-07T06:22:27.902Z,973.89
2022-10-07T06:23:27.899Z,973.95
2022-10-07T06:24:27.911Z,973.94
2022-10-07T06:25:27.869Z,973.94
2022-10-07T06:26:27.882Z,973.96
2022-10-07T06:27:27.881Z,973.91
2022-10-07T06:28:27.853Z,973.98
2022-10-07T06:29:27.836Z,973.90
2022-10-07T06:30:28.016Z,973.90
2022-10-07T06:31:27.807Z,974.00
2022-10-07T06:32:27.779Z,973.98
2022-10-07T06:33:27.774Z,973.93
2022-10-07T06:34:27.787Z,973.94
2022-10-07T06:35:27.790Z,973.92
2022-10-07T06:36:27.741Z,973.97
2022-10-07T06:37:27.734Z,973.95
2022-10-07T06:38:27.712Z,973.92
2022-10-07T06:39:27.710Z,973.90
2022-10-07T06:40:27.726Z,973.96
2022-10-07T06:41:27.706Z,973.91
2022-10-07T06:42:27.689Z,973.95
2022-10-07T06:43:27.681Z,973.90
2022-10-07T06:44:27.646Z,973.90
2022-10-07T06:45:27.651Z,973.94
2022-10-07T06:46:27.796Z,973.88
2022-10-07T06:47:27.623Z,973.89
2022-10-07T06:48:27.605Z,973.90
2022-10-07T06:49:27.638Z,973.90
2022-10-07T06:50:27.583Z,973.87
2022-10-07T06:51:27.591Z,973.93
2022-10-07T06:52:27.594Z,973.87
2022-10-07T06:53:27.596Z,973.90
2022-10-07T06:54:27.542Z,973.88
2022-10-07T06:55:27.577Z,973.91
2022-10-07T06:56:27.523Z,973.89
2022-10-07T06:57:44.828Z,973.89
2022-10-07T06:58:28.513Z,973.92
2022-10-07T06:59:27.499Z,973.93
2022-10-07T07:00:27.499Z,973.90
2022-10-07T07:01:27.543Z,973.93
2022-10-07T07:02:27.527Z,973.90
2022-10-07T07:03:27.460Z,973.91
2022-10-07T07:04:27.439Z,973.94
2022-10-07T07:05:27.432Z,973.93
2022-10-07T07:06:27.391Z,973.98
2022-10-07T07:07:27.394Z,973.95
2022-10-07T07:08:27.403Z,973.99
2022-10-07T07:09:27.397Z,974.00
2022-10-07T07:10:27.360Z,974.01
2022-10-07T07:11:27.382Z,974.02
2022-10-07T07:12:27.327Z,974.07
2022-10-07T07:13:27.333Z,974.03
2022-10-07T07:14:27.430Z,974.03
2022-10-07T07:15:27.292Z,974.03
2022-10-07T07:16:27.439Z,974.00
2022-10-07T07:17:27.295Z,974.04
2022-10-07T07:18:27.305Z,973.95
2022-10-07T07:19:27.274Z,973.95
2022-10-07T07:20:27.249Z,973.94
2022-10-07T07:21:27.231Z,973.92
2022-10-07T07:22:27.228Z,973.93
2022-10-07T07:23:27.251Z,973.91
2022-10-07T07:24:27.203Z,973.95
2022-10-07T07:25:27.225Z,973.96
2022-10-07T07:26:27.164Z,973.96
2022-10-07T07:27:27.173Z,973.98
2022-10-07T07:28:27.235Z,973.94
2022-10-07T07:29:27.136Z,973.98
2022-10-07T07:30:27.235Z,973.97
2022-10-07T07:31:27.130Z,973.95
2022-10-07T07:32:27.113Z,973.98
2022-10-07T07:33:27.107Z,973.96
2022-10-07T07:34:27.115Z,973.96
2022-10-07T07:35:27.066Z,973.97
2022-10-07T07:36:27.053Z,973.95
2022-10-07T07:37:27.076Z,973.97
2022-10-07T07:38:27.051Z,973.91
2022-10-07T07:39:27.049Z,973.93
2022-10-07T07:40:27.007Z,973.97
2022-10-07T07:41:27.001Z,973.99
2022-10-07T07:42:27.029Z,973.92
2022-10-07T07:43:26.978Z,973.99
2022-10-07T07:44:30.075Z,973.94
2022-10-07T07:45:27.950Z,973.95
2022-10-07T07:46:27.009Z,973.95
2022-10-07T07:47:26.959Z,973.96
2022-10-07T07:48:26.926Z,973.97
2022-10-07T07:49:26.963Z,973.93
2022-10-07T07:50:26.907Z,973.91
2022-10-07T07:51:26.883Z,973.91
2022-10-07T07:52:26.871Z,973.93
2022-10-07T07:53:26.863Z,973.93
2022-10-07T07:54:26.888Z,973.87
2022-10-07T07:55:26.858Z,973.87
2022-10-07T07:56:26.821Z,973.87
2022-10-07T07:57:26.819Z,973.84
2022-10-07T07:58:26.813Z,973.87
2022-10-07T07:59:26.821Z,973.85
2022-10-07T08:00:26.813Z,973.87
2022-10-07T08:01:26.886Z,973.80
2022-10-07T08:02:26.830Z,973.81
2022-10-07T08:03:26.756Z,973.82
2022-10-07T08:04:26.741Z,973.81
2022-10-07T08:05:26.718Z,973.81
2022-10-07T08:06:26.787Z,973.80
2022-10-07T08:07:26.737Z,973.82
2022-10-07T08:08:27.614Z,973.81
2022-10-07T08:09:26.671Z,973.81
2022-10-07T08:10:26.681Z,973.78
2022-10-07T08:11:26.709Z,973.79
2022-10-07T08:12:26.672Z,973.76
2022-10-07T08:13:26.626Z,973.85
2022-10-07T08:14:26.612Z,973.79
2022-10-07T08:15:26.638Z,973.79
2022-10-07T08:16:26.600Z,973.73
2022-10-07T08:17:26.596Z,973.76
2022-10-07T08:18:26.611Z,973.71
2022-10-07T08:19:26.559Z,973.71
2022-10-07T08:20:26.554Z,973.69
2022-10-07T08:21:26.573Z,973.72
2022-10-07T08:22:26.554Z,973.71
2022-10-07T08:23:26.545Z,973.69
2022-10-07T08:24:26.531Z,973.77
2022-10-07T08:25:26.562Z,973.70
2022-10-07T08:26:26.498Z,973.69
2022-10-07T08:27:26.513Z,973.74
2022-10-07T08:28:26.545Z,973.73
2022-10-07T08:29:26.465Z,973.69
2022-10-07T08:30:26.431Z,973.69
2022-10-07T08:31:26.492Z,973.68
2022-10-07T08:32:26.422Z,973.70
2022-10-07T08:33:26.400Z,973.67
2022-10-07T08:34:26.404Z,973.70
2022-10-07T08:35:26.377Z,973.71
2022-10-07T08:36:26.397Z,973.71
2022-10-07T08:37:26.362Z,973.72
2022-10-07T08:38:26.402Z,973.69
2022-10-07T08:39:26.342Z,973.69
2022-10-07T08:40:26.336Z,973.66
2022-10-07T08:41:26.306Z,973.63
2022-10-07T08:42:26.309Z,973.63
2022-10-07T08:43:26.322Z,973.61
2022-10-07T08:44:26.288Z,973.64
2022-10-07T08:45:26.278Z,973.57
2022-10-07T08:46:26.284Z,973.56
2022-10-07T08:47:26.241Z,973.59
2022-10-07T08:48:26.225Z,973.55
2022-10-07T08:49:26.242Z,973.55
2022-10-07T08:50:26.229Z,973.52
2022-10-07T08:51:26.198Z,973.48
2022-10-07T08:52:26.181Z,973.50
2022-10-07T08:53:26.185Z,973.51
2022-10-07T08:54:26.174Z,973.53
2022-10-07T08:55:26.150Z,973.51
2022-10-07T08:56:26.157Z,973.50
2022-10-07T08:57:26.157Z,973.44
2022-10-07T08:58:26.112Z,973.46
2022-10-07T08:59:26.141Z,973.41
2022-10-07T09:00:26.099Z,973.43
2022-10-07T09:01:26.146Z,973.42
2022-10-07T09:02:26.177Z,973.43
2022-10-07T09:03:26.057Z,973.39
2022-10-07T09:04:26.067Z,973.38
2022-10-07T09:05:26.064Z,973.34
2022-10-07T09:06:26.038Z,973.32
2022-10-07T09:07:26.030Z,973.34
2022-10-07T09:08:26.029Z,973.29
2022-10-07T09:09:25.985Z,973.30
2022-10-07T09:10:26.015Z,973.28
2022-10-07T09:11:25.974Z,973.29
2022-10-07T09:12:25.955Z,973.25
2022-10-07T09:13:25.949Z,973.24
2022-10-07T09:14:25.937Z,973.23
2022-10-07T09:15:25.938Z,973.26
2022-10-07T09:16:25.906Z,973.27
2022-10-07T09:17:25.920Z,973.24
2022-10-07T09:18:25.895Z,973.23
2022-10-07T09:19:25.870Z,973.22
2022-10-07T09:20:25.866Z,973.22
2022-10-07T09:21:25.873Z,973.19
2022-10-07T09:22:25.842Z,973.19
2022-10-07T09:23:25.834Z,973.22
2022-10-07T09:24:25.841Z,973.20
2022-10-07T09:25:25.853Z,973.17
2022-10-07T09:26:25.824Z,973.17
2022-10-07T09:27:25.789Z,973.22
2022-10-07T09:28:25.881Z,973.13
2022-10-07T09:29:25.803Z,973.18
2022-10-07T09:30:25.773Z,973.13
2022-10-07T09:31:25.849Z,973.13
2022-10-07T09:32:25.728Z,973.13
2022-10-07T09:33:25.737Z,973.14
2022-10-07T09:34:25.748Z,973.17
2022-10-07T09:35:25.705Z,973.11
2022-10-07T09:36:25.715Z,973.14
2022-10-07T09:37:25.666Z,973.15
2022-10-07T09:38:25.678Z,973.19
2022-10-07T09:39:25.669Z,973.18
2022-10-07T09:40:25.638Z,973.15
2022-10-07T09:41:30.322Z,973.18
2022-10-07T09:42:26.652Z,973.17
2022-10-07T09:43:25.607Z,973.19
2022-10-07T09:44:25.600Z,973.14
2022-10-07T09:45:25.619Z,973.16
2022-10-07T09:46:25.650Z,973.14
2022-10-07T09:47:25.551Z,973.16
2022-10-07T09:48:25.549Z,973.14
2022-10-07T09:49:25.553Z,973.18
2022-10-07T09:50:25.540Z,973.19
2022-10-07T09:51:25.533Z,973.14
2022-10-07T09:52:25.505Z,973.16
2022-10-07T09:53:25.490Z,973.11
2022-10-07T09:54:25.544Z,973.14
2022-10-07T09:55:25.474Z,973.14
2022-10-07T09:56:25.478Z,973.15
2022-10-07T09:57:25.453Z,973.13
2022-10-07T09:58:25.473Z,973.12
2022-10-07T09:59:25.417Z,973.09
2022-10-07T10:00:25.416Z,973.08
2022-10-07T10:01:25.400Z,973.02
2022-10-07T10:02:25.574Z,973.04
2022-10-07T10:03:25.451Z,973.06
2022-10-07T10:04:25.360Z,973.09
2022-10-07T10:05:25.356Z,973.09
2022-10-07T10:06:25.363Z,973.08
2022-10-07T10:07:25.344Z,973.04
2022-10-07T10:08:25.373Z,973.08
2022-10-07T10:09:25.318Z,973.08
2022-10-07T10:10:25.290Z,973.02
2022-10-07T10:11:25.290Z,973.04
2022-10-07T10:12:25.288Z,973.04
2022-10-07T10:13:25.255Z,973.03
2022-10-07T10:14:25.284Z,973.05
2022-10-07T10:15:25.256Z,973.04
2022-10-07T10:16:25.309Z,973.05
2022-10-07T10:17:25.210Z,973.00
2022-10-07T10:18:25.242Z,973.02
2022-10-07T10:19:25.299Z,972.99
2022-10-07T10:20:25.175Z,973.06
2022-10-07T10:21:25.163Z,973.03
2022-10-07T10:22:25.161Z,973.03
2022-10-07T10:23:25.152Z,973.00
2022-10-07T10:24:25.191Z,972.98
2022-10-07T10:25:25.167Z,973.00
2022-10-07T10:26:27.266Z,973.00
2022-10-07T10:27:26.106Z,972.98
2022-10-07T10:28:25.145Z,972.95
2022-10-07T10:29:25.071Z,972.96
2022-10-07T10:30:25.085Z,972.98
2022-10-07T10:31:25.122Z,972.97
2022-10-07T10:32:25.076Z,972.96
2022-10-07T10:33:25.028Z,972.93
2022-10-07T10:34:25.048Z,972.94
2022-10-07T10:35:25.046Z,972.97
2022-10-07T10:36:25.006Z,972.91
2022-10-07T10:37:25.021Z,972.89
2022-10-07T10:38:24.968Z,972.91
2022-10-07T10:39:24.978Z,972.87
2022-10-07T10:40:24.975Z,972.86
2022-10-07T10:41:24.942Z,972.86
2022-10-07T10:42:24.931Z,972.87
2022-10-07T10:43:24.927Z,972.83
2022-10-07T10:44:24.958Z,972.83
2022-10-07T10:45:33.729Z,972.86
2022-10-07T10:46:24.978Z,972.83
2022-10-07T10:47:24.879Z,972.75
2022-10-07T10:48:24.886Z,972.75
2022-10-07T10:49:24.843Z,972.69
2022-10-07T10:50:24.840Z,972.67
2022-10-07T10:51:24.829Z,972.68
2022-10-07T10:52:24.823Z,972.66
2022-10-07T10:53:24.818Z,972.63
2022-10-07T10:54:24.789Z,972.68
2022-10-07T10:55:24.776Z,972.59
2022-10-07T10:56:24.794Z,972.62
2022-10-07T10:57:24.777Z,972.58
2022-10-07T10:58:24.754Z,972.57
2022-10-07T10:59:24.766Z,972.56
2022-10-07T11:00:24.725Z,972.53
2022-10-07T11:01:24.826Z,972.60
2022-10-07T11:02:24.780Z,972.56
2022-10-07T11:03:24.703Z,972.51
2022-10-07T11:04:24.696Z,972.53
2022-10-07T11:05:24.662Z,972.52
2022-10-07T11:06:24.710Z,972.48
2022-10-07T11:07:24.637Z,972.52
2022-10-07T11:08:27.341Z,972.57
2022-10-07T11:09:28.622Z,972.54
2022-10-07T11:10:25.670Z,972.53
2022-10-07T11:11:24.594Z,972.51
2022-10-07T11:12:25.041Z,972.50
2022-10-07T11:13:24.593Z,972.50
2022-10-07T11:14:24.574Z,972.48
2022-10-07T11:15:24.580Z,972.44
2022-10-07T11:16:24.646Z,972.45
2022-10-07T11:17:24.587Z,972.44
2022-10-07T11:18:24.525Z,972.42
2022-10-07T11:19:24.529Z,972.45
2022-10-07T11:20:24.493Z,972.41
2022-10-07T11:21:24.488Z,972.40
2022-10-07T11:22:24.468Z,972.27
2022-10-07T11:23:24.468Z,972.32
2022-10-07T11:24:24.445Z,972.27
2022-10-07T11:25:24.461Z,972.26
2022-10-07T11:26:24.438Z,972.21
2022-10-07T11:27:24.429Z,972.18
2022-10-07T11:28:24.510Z,972.18
2022-10-07T11:29:24.399Z,972.18
2022-10-07T11:30:24.381Z,972.13
2022-10-07T11:31:24.506Z,972.20
2022-10-07T11:32:24.419Z,972.16
2022-10-07T11:33:24.504Z,972.16
2022-10-07T11:34:24.336Z,972.19
2022-10-07T11:35:24.319Z,972.15
2022-10-07T11:36:24.322Z,972.11
2022-10-07T11:37:24.306Z,972.08
2022-10-07T11:38:24.330Z,972.11
2022-10-07T11:39:24.274Z,972.07
2022-10-07T11:40:28.247Z,972.07
2022-10-07T11:41:24.252Z,972.04
2022-10-07T11:42:24.245Z,972.06
2022-10-07T11:43:24.273Z,972.05
2022-10-07T11:44:24.251Z,972.06
2022-10-07T11:45:24.205Z,972.02
2022-10-07T11:46:24.285Z,972.02
2022-10-07T11:47:24.194Z,972.04
2022-10-07T11:48:24.214Z,972.01
2022-10-07T11:49:24.196Z,972.04
2022-10-07T11:50:24.152Z,971.96
2022-10-07T11:51:24.148Z,971.94
2022-10-07T11:52:24.131Z,971.99
2022-10-07T11:53:24.128Z,971.98
2022-10-07T11:54:24.125Z,971.95
2022-10-07T11:55:24.127Z,971.91
2022-10-07T11:56:24.085Z,971.95
2022-10-07T11:57:24.088Z,971.89
2022-10-07T11:58:24.066Z,971.93
2022-10-07T11:59:24.051Z,971.80
2022-10-07T12:00:24.079Z,971.80
2022-10-07T12:01:24.026Z,971.80
2022-10-07T12:02:24.084Z,971.82
2022-10-07T12:03:24.088Z,971.79
2022-10-07T12:04:24.028Z,971.81
2022-10-07T12:05:24.005Z,971.80
2022-10-07T12:06:23.989Z,971.77
2022-10-07T12:07:23.989Z,971.76
2022-10-07T12:08:23.953Z,971.78
2022-10-07T12:09:23.957Z,971.77
2022-10-07T12:10:23.926Z,971.74
2022-10-07T12:11:23.929Z,971.74
2022-10-07T12:12:23.951Z,971.68
2022-10-07T12:13:23.890Z,971.68
2022-10-07T12:14:23.881Z,971.63
2022-10-07T12:15:23.888Z,971.59
2022-10-07T12:16:23.975Z,971.63
2022-10-07T12:17:23.868Z,971.61
2022-10-07T12:18:23.839Z,971.63
2022-10-07T12:19:24.253Z,971.59
2022-10-07T12:20:23.815Z,971.60
2022-10-07T12:21:23.857Z,971.52
2022-10-07T12:22:23.803Z,971.53
2022-10-07T12:23:23.809Z,971.57
2022-10-07T12:24:23.767Z,971.53
2022-10-07T12:25:23.756Z,971.46
2022-10-07T12:26:23.751Z,971.52
2022-10-07T12:27:23.748Z,971.45
2022-10-07T12:28:23.801Z,971.41